createdAt,value
2023-05-16T00:00:49.018Z,7.60
2023-05-16T00:03:16.187Z,7.90
2023-05-16T00:05:43.125Z,7.40
2023-05-16T00:08:09.973Z,8.00
2023-05-16T00:10:37.729Z,7.10
2023-05-16T00:13:04.908Z,7.60
2023-05-16T00:15:31.752Z,6.87
2023-05-16T00:18:01.356Z,6.40
2023-05-16T00:20:29.249Z,6.70
2023-05-16T00:22:56.425Z,7.60
2023-05-16T00:25:23.655Z,6.83
2023-05-16T00:27:50.654Z,7.00
2023-05-16T00:30:17.680Z,7.00
2023-05-16T00:32:44.662Z,6.63
2023-05-16T00:35:12.693Z,7.17
2023-05-16T00:37:40.110Z,7.10
2023-05-16T00:40:07.911Z,6.87
2023-05-16T00:42:36.522Z,7.50
2023-05-16T00:45:04.487Z,7.07
2023-05-16T00:47:31.476Z,7.80
2023-05-16T00:49:58.837Z,6.87
2023-05-16T00:52:26.770Z,6.73
2023-05-16T00:54:53.815Z,6.20
2023-05-16T00:57:20.990Z,7.47
2023-05-16T00:59:48.021Z,6.77
2023-05-16T01:02:15.329Z,8.27
2023-05-16T01:04:43.539Z,7.03
2023-05-16T01:07:10.789Z,7.57
2023-05-16T01:09:38.546Z,7.67
2023-05-16T01:12:22.652Z,6.80
2023-05-16T01:14:56.979Z,7.93
2023-05-16T01:17:31.549Z,6.40
2023-05-16T01:20:19.371Z,7.87
2023-05-16T01:22:49.168Z,8.07
2023-05-16T01:25:33.171Z,8.70
2023-05-16T01:28:01.573Z,8.10
2023-05-16T01:30:34.079Z,8.73
2023-05-16T01:33:01.709Z,9.47
2023-05-16T01:35:29.234Z,8.63
2023-05-16T01:38:11.753Z,9.80
2023-05-16T01:40:47.032Z,10.57
2023-05-16T01:43:21.059Z,8.80
2023-05-16T01:45:55.842Z,9.70
2023-05-16T01:48:31.043Z,8.40
2023-05-16T01:51:00.800Z,8.80
2023-05-16T01:53:33.633Z,8.03
2023-05-16T01:56:02.552Z,9.13
2023-05-16T01:58:33.391Z,8.40
2023-05-16T02:01:03.994Z,8.20
2023-05-16T02:03:32.227Z,7.83
2023-05-16T02:05:59.691Z,9.17
2023-05-16T02:08:27.699Z,9.30
2023-05-16T02:10:54.543Z,9.57
2023-05-16T02:13:21.411Z,9.70
2023-05-16T02:15:48.253Z,8.90
2023-05-16T02:18:15.147Z,8.80
2023-05-16T02:20:43.189Z,8.60
2023-05-16T02:23:10.049Z,8.40
2023-05-16T02:25:36.917Z,7.90
2023-05-16T02:28:03.862Z,8.37
2023-05-16T02:30:30.798Z,9.07
2023-05-16T02:32:57.649Z,8.90
2023-05-16T02:35:24.947Z,9.17
2023-05-16T02:37:51.887Z,8.10
2023-05-16T02:40:18.833Z,7.50
2023-05-16T02:42:45.644Z,8.37
2023-05-16T02:45:12.786Z,10.10
2023-05-16T02:47:39.660Z,9.10
2023-05-16T02:50:06.968Z,8.40
2023-05-16T02:52:34.835Z,8.50
2023-05-16T02:55:16.861Z,9.43
2023-05-16T02:57:48.364Z,8.70
2023-05-16T03:00:18.502Z,9.00
2023-05-16T03:02:46.172Z,9.47
2023-05-16T03:05:13.594Z,9.50
2023-05-16T03:07:40.639Z,8.70
2023-05-16T03:10:08.174Z,9.73
2023-05-16T03:12:35.011Z,9.53
2023-05-16T03:15:02.207Z,9.50
2023-05-16T03:17:29.589Z,7.50
2023-05-16T03:19:57.547Z,8.50
2023-05-16T03:22:24.533Z,8.73
2023-05-16T03:24:51.437Z,8.93
2023-05-16T03:27:18.319Z,9.10
2023-05-16T03:29:45.097Z,8.17
2023-05-16T03:32:12.192Z,7.83
2023-05-16T03:34:39.066Z,8.83
2023-05-16T03:37:06.784Z,8.23
2023-05-16T03:39:33.837Z,9.40
2023-05-16T03:42:00.681Z,9.57
2023-05-16T03:44:27.499Z,9.57
2023-05-16T03:46:56.195Z,8.20
2023-05-16T03:49:27.203Z,8.40
2023-05-16T03:51:54.075Z,8.57
2023-05-16T03:54:20.970Z,11.00
2023-05-16T03:56:47.829Z,8.73
2023-05-16T03:59:14.927Z,9.47
2023-05-16T04:01:41.820Z,9.50
2023-05-16T04:04:08.753Z,9.80
2023-05-16T04:06:35.884Z,10.17
2023-05-16T04:09:02.742Z,10.10
2023-05-16T04:11:29.691Z,10.73
2023-05-16T04:13:57.190Z,9.50
2023-05-16T04:16:24.119Z,9.73
2023-05-16T04:18:51.090Z,9.87
2023-05-16T04:21:17.928Z,10.13
2023-05-16T04:23:45.057Z,9.03
2023-05-16T04:26:11.965Z,9.77
2023-05-16T04:28:38.800Z,8.97
2023-05-16T04:31:06.041Z,9.07
2023-05-16T04:33:32.954Z,10.70
2023-05-16T04:36:00.413Z,11.20
2023-05-16T04:38:27.247Z,9.67
2023-05-16T04:40:54.263Z,9.80
2023-05-16T04:43:21.180Z,9.70
2023-05-16T04:45:48.933Z,9.50
2023-05-16T04:48:15.969Z,11.43
2023-05-16T04:50:42.843Z,11.20
2023-05-16T04:53:10.162Z,10.97
2023-05-16T04:55:37.197Z,11.53
2023-05-16T04:58:04.106Z,10.70
2023-05-16T05:00:30.957Z,11.57
2023-05-16T05:02:57.930Z,11.33
2023-05-16T05:05:24.867Z,12.50
2023-05-16T05:07:51.791Z,11.20
2023-05-16T05:10:18.746Z,11.57
2023-05-16T05:12:45.615Z,12.10
2023-05-16T05:15:13.489Z,11.67
2023-05-16T05:17:40.553Z,11.27
2023-05-16T05:20:08.824Z,11.73
2023-05-16T05:22:35.687Z,12.07
2023-05-16T05:25:02.887Z,11.30
2023-05-16T05:27:29.780Z,10.40
2023-05-16T05:29:56.627Z,10.83
2023-05-16T05:32:23.846Z,11.33
2023-05-16T05:34:50.880Z,11.57
2023-05-16T05:37:17.706Z,11.97
2023-05-16T05:39:45.351Z,12.70
2023-05-16T05:42:15.023Z,12.60
2023-05-16T05:44:41.917Z,14.10
2023-05-16T05:47:09.110Z,11.40
2023-05-16T05:49:36.343Z,11.33
2023-05-16T05:52:03.375Z,11.90
2023-05-16T05:54:30.541Z,12.00
2023-05-16T05:56:59.665Z,11.83
2023-05-16T05:59:26.642Z,12.73
2023-05-16T06:01:53.591Z,13.07
2023-05-16T06:04:21.047Z,13.30
2023-05-16T06:06:48.396Z,11.77
2023-05-16T06:09:15.359Z,13.60
2023-05-16T06:11:43.569Z,12.70
2023-05-16T06:14:10.498Z,13.27
2023-05-16T06:16:37.438Z,12.90
2023-05-16T06:19:04.476Z,12.50
2023-05-16T06:21:31.368Z,12.40
2023-05-16T06:23:58.205Z,12.77
2023-05-16T06:26:25.197Z,13.43
2023-05-16T06:28:52.016Z,12.13
2023-05-16T06:31:18.849Z,12.17
2023-05-16T06:33:46.144Z,12.10
2023-05-16T06:36:12.974Z,12.43
2023-05-16T06:38:39.821Z,13.30
2023-05-16T06:41:06.611Z,11.80
2023-05-16T06:43:33.487Z,12.70
2023-05-16T06:46:00.432Z,12.33
2023-05-16T06:48:27.480Z,11.90
2023-05-16T06:50:54.492Z,11.63
2023-05-16T06:53:21.638Z,11.00
2023-05-16T06:55:48.900Z,12.27
2023-05-16T06:58:15.861Z,11.10
2023-05-16T07:00:44.241Z,11.17
2023-05-16T07:03:11.375Z,10.63
2023-05-16T07:05:38.368Z,11.23
2023-05-16T07:08:07.815Z,10.33
2023-05-16T07:10:35.009Z,11.50
2023-05-16T07:13:02.335Z,11.50
2023-05-16T07:15:29.476Z,11.00
2023-05-16T07:17:57.483Z,10.53
2023-05-16T07:20:25.780Z,10.13
2023-05-16T07:22:52.743Z,10.60
2023-05-16T07:25:19.679Z,10.83
2023-05-16T07:27:46.635Z,9.53
2023-05-16T07:30:14.502Z,9.27
2023-05-16T07:32:42.127Z,9.27
2023-05-16T07:35:09.835Z,10.13
2023-05-16T07:37:36.817Z,7.83
2023-05-16T07:40:04.080Z,9.33
2023-05-16T07:42:31.950Z,8.43
2023-05-16T07:44:58.845Z,8.07
2023-05-16T07:47:26.095Z,7.53
2023-05-16T07:49:53.035Z,8.90
2023-05-16T07:52:20.018Z,8.93
2023-05-16T07:54:47.635Z,7.90
2023-05-16T07:57:15.737Z,7.90
2023-05-16T07:59:43.648Z,9.03
2023-05-16T08:02:11.627Z,10.03
2023-05-16T08:04:38.896Z,8.87
2023-05-16T08:07:06.294Z,8.60
2023-05-16T08:09:33.352Z,8.83
2023-05-16T08:12:04.024Z,8.83
2023-05-16T08:14:34.394Z,7.90
2023-05-16T08:17:01.613Z,7.70
2023-05-16T08:19:29.712Z,8.50
2023-05-16T08:21:56.703Z,7.87
2023-05-16T08:24:23.785Z,8.53
2023-05-16T08:26:50.991Z,8.40
2023-05-16T08:29:17.856Z,8.50
2023-05-16T08:31:44.855Z,8.30
2023-05-16T08:34:11.746Z,7.97
2023-05-16T08:36:39.173Z,7.40
2023-05-16T08:39:06.298Z,8.50
2023-05-16T08:41:33.638Z,7.50
2023-05-16T08:44:00.703Z,7.63
2023-05-16T08:46:29.242Z,6.87
2023-05-16T08:49:03.184Z,8.27
2023-05-16T08:51:35.618Z,8.17
2023-05-16T08:54:12.008Z,6.63
2023-05-16T08:56:41.194Z,7.20
2023-05-16T08:59:08.224Z,7.30
2023-05-16T09:01:36.206Z,7.50
2023-05-16T09:04:06.159Z,7.37
2023-05-16T09:06:33.147Z,8.17
2023-05-16T09:09:00.115Z,7.53
2023-05-16T09:11:26.963Z,8.80
2023-05-16T09:13:53.883Z,8.73
2023-05-16T09:16:21.710Z,8.20
2023-05-16T09:18:58.008Z,8.63
2023-05-16T09:21:29.139Z,8.53
2023-05-16T09:23:56.397Z,7.70
2023-05-16T09:26:23.356Z,7.37
2023-05-16T09:28:54.188Z,8.30
2023-05-16T09:31:27.127Z,8.70
2023-05-16T09:33:56.958Z,7.80
2023-05-16T09:36:24.038Z,8.47
2023-05-16T09:38:52.261Z,7.20
2023-05-16T09:41:19.229Z,8.63
2023-05-16T09:43:46.686Z,6.80
2023-05-16T09:46:17.176Z,7.87
2023-05-16T09:48:48.383Z,7.80
2023-05-16T09:51:16.457Z,8.80
2023-05-16T09:53:43.808Z,6.80
2023-05-16T09:56:12.882Z,7.43
2023-05-16T09:58:41.094Z,7.80
2023-05-16T10:01:09.086Z,8.07
2023-05-16T10:03:41.086Z,7.30
2023-05-16T10:06:09.277Z,8.03
2023-05-16T10:08:37.393Z,8.40
2023-05-16T10:11:06.704Z,8.87
2023-05-16T10:13:36.184Z,8.87
2023-05-16T10:16:10.281Z,7.30
2023-05-16T10:18:38.992Z,8.93
2023-05-16T10:21:11.792Z,9.43
2023-05-16T10:23:42.639Z,7.90
2023-05-16T10:26:11.642Z,8.43
2023-05-16T10:28:40.716Z,7.20
2023-05-16T10:31:10.143Z,6.77
2023-05-16T10:33:37.348Z,6.87
2023-05-16T10:36:05.763Z,6.70
2023-05-16T10:38:34.764Z,6.90
2023-05-16T10:41:02.353Z,7.40
2023-05-16T10:43:33.743Z,6.97
2023-05-16T10:46:05.664Z,7.20
2023-05-16T10:48:38.000Z,6.37
2023-05-16T10:51:35.581Z,7.20
2023-05-16T10:54:15.047Z,7.20
2023-05-16T10:56:43.563Z,6.13
2023-05-16T10:59:24.506Z,5.80
2023-05-16T11:01:56.476Z,5.73
2023-05-16T11:04:23.558Z,6.20
2023-05-16T11:06:53.093Z,6.73
2023-05-16T11:09:23.627Z,6.30
2023-05-16T11:11:53.713Z,6.63
2023-05-16T11:14:45.437Z,7.07
2023-05-16T11:17:20.967Z,7.40
2023-05-16T11:19:52.931Z,7.10
2023-05-16T11:22:19.742Z,6.83
2023-05-16T11:24:57.989Z,7.77
2023-05-16T11:27:36.492Z,8.43
2023-05-16T11:30:06.556Z,7.53
2023-05-16T11:32:38.819Z,7.90
2023-05-16T11:35:09.035Z,7.27
2023-05-16T11:37:42.583Z,9.30
2023-05-16T11:40:11.712Z,6.40
2023-05-16T11:42:45.140Z,8.27
2023-05-16T11:45:16.442Z,7.00
2023-05-16T11:47:45.422Z,6.33
2023-05-16T11:50:23.896Z,7.07
2023-05-16T11:52:57.732Z,7.57
2023-05-16T11:55:41.488Z,6.50
2023-05-16T11:58:09.736Z,7.17
2023-05-16T12:00:36.760Z,6.40
2023-05-16T12:03:06.176Z,6.17
2023-05-16T12:05:35.365Z,7.00
2023-05-16T12:08:05.273Z,6.00
2023-05-16T12:10:34.984Z,6.93
2023-05-16T12:13:03.678Z,6.23
2023-05-16T12:15:31.330Z,6.80
2023-05-16T12:17:58.984Z,6.20
2023-05-16T12:20:26.419Z,6.07
2023-05-16T12:22:53.528Z,6.20
2023-05-16T12:25:36.284Z,6.20
2023-05-16T12:28:04.697Z,6.93
2023-05-16T12:30:33.019Z,6.30
2023-05-16T12:33:09.749Z,5.97
2023-05-16T12:35:39.644Z,6.30
2023-05-16T12:38:14.473Z,6.13
2023-05-16T12:40:43.708Z,7.40
2023-05-16T12:43:20.095Z,7.53
2023-05-16T12:45:53.763Z,6.03
2023-05-16T12:48:21.575Z,6.43
2023-05-16T12:50:49.043Z,7.50
2023-05-16T12:53:18.307Z,6.50
2023-05-16T12:55:45.798Z,6.03
2023-05-16T12:58:13.053Z,6.70
2023-05-16T13:00:40.470Z,6.93
2023-05-16T13:03:08.250Z,7.00
2023-05-16T13:05:36.632Z,6.50
2023-05-16T13:08:04.525Z,6.00
2023-05-16T13:10:31.660Z,7.47
2023-05-16T13:13:00.504Z,6.77
2023-05-16T13:15:28.248Z,6.17
2023-05-16T13:17:55.968Z,6.53
2023-05-16T13:20:23.124Z,6.80
2023-05-16T13:22:50.212Z,6.30
2023-05-16T13:25:17.370Z,6.70
2023-05-16T13:27:44.552Z,6.23
2023-05-16T13:30:12.069Z,5.57
2023-05-16T13:32:39.506Z,6.47
2023-05-16T13:35:07.211Z,5.90
2023-05-16T13:37:34.566Z,4.93
2023-05-16T13:40:02.092Z,5.00
2023-05-16T13:42:29.174Z,5.17
2023-05-16T13:44:56.635Z,5.40
2023-05-16T13:47:23.698Z,5.10
2023-05-16T13:49:50.978Z,4.30
2023-05-16T13:52:18.349Z,3.90
2023-05-16T13:54:45.518Z,3.83
2023-05-16T14:00:48.863Z,4.93
2023-05-16T14:03:16.257Z,5.10
2023-05-16T14:05:43.371Z,4.83
2023-05-16T14:08:10.437Z,5.60
2023-05-16T14:14:21.517Z,5.80
2023-05-16T14:16:48.544Z,5.53
2023-05-16T14:19:18.171Z,4.50
2023-05-16T14:21:46.375Z,5.03
2023-05-16T14:24:13.326Z,5.57
2023-05-16T14:26:40.198Z,5.60
2023-05-16T14:29:07.282Z,5.80
2023-05-16T14:31:36.662Z,5.50
2023-05-16T14:34:03.681Z,6.10
2023-05-16T14:36:32.243Z,5.30
2023-05-16T14:38:59.436Z,4.13
2023-05-16T14:41:26.852Z,4.70
2023-05-16T14:43:56.634Z,5.17
2023-05-16T14:46:23.597Z,4.50
2023-05-16T14:48:51.354Z,4.80
2023-05-16T14:51:18.445Z,4.50
2023-05-16T14:53:46.976Z,4.90
2023-05-16T14:56:14.494Z,4.63
2023-05-16T14:58:41.366Z,4.57
2023-05-16T15:01:08.270Z,4.90
2023-05-16T15:03:46.962Z,5.00
2023-05-16T15:06:17.968Z,5.17
2023-05-16T15:08:44.830Z,5.27
2023-05-16T15:11:12.038Z,5.17
2023-05-16T15:13:39.344Z,6.10
2023-05-16T15:16:06.543Z,5.70
2023-05-16T15:18:33.628Z,4.90
2023-05-16T15:21:00.694Z,5.30
2023-05-16T15:23:27.751Z,6.30
2023-05-16T15:25:55.027Z,6.00
2023-05-16T15:28:22.800Z,4.70
2023-05-16T15:30:51.521Z,5.23
2023-05-16T15:33:18.530Z,5.50
2023-05-16T15:35:45.764Z,6.07
2023-05-16T15:38:12.856Z,7.10
2023-05-16T15:40:39.766Z,5.60
2023-05-16T15:43:06.713Z,6.80
2023-05-16T15:45:33.972Z,6.57
2023-05-16T15:48:01.017Z,6.30
2023-05-16T15:50:28.037Z,6.60
2023-05-16T15:52:55.102Z,5.60
2023-05-16T15:55:22.234Z,3.93
2023-05-16T15:57:49.181Z,4.60
2023-05-16T16:00:16.616Z,3.70
2023-05-16T16:02:45.469Z,3.57
2023-05-16T16:05:12.491Z,6.53
2023-05-16T16:07:39.406Z,3.73
2023-05-16T16:10:07.115Z,4.37
2023-05-16T16:12:34.036Z,3.90
2023-05-16T16:15:02.565Z,3.60
2023-05-16T16:17:29.640Z,3.47
2023-05-16T16:19:56.969Z,4.07
2023-05-16T16:22:24.001Z,3.63
2023-05-16T16:24:50.930Z,3.13
2023-05-16T16:27:18.008Z,3.80
2023-05-16T16:29:45.422Z,4.03
2023-05-16T16:32:12.334Z,3.60
2023-05-16T16:34:39.238Z,3.40
2023-05-16T16:37:06.273Z,3.30
2023-05-16T16:39:33.453Z,2.70
2023-05-16T16:42:00.478Z,2.67
2023-05-16T16:44:27.381Z,2.63
2023-05-16T16:46:54.387Z,3.90
2023-05-16T16:49:21.459Z,3.23
2023-05-16T16:51:48.466Z,3.50
2023-05-16T16:54:15.317Z,2.50
2023-05-16T16:56:42.393Z,2.83
2023-05-16T16:59:10.110Z,2.87
2023-05-16T17:01:37.202Z,2.43
2023-05-16T17:04:04.621Z,3.23
2023-05-16T17:06:31.495Z,1.83
2023-05-16T17:09:02.635Z,2.90
2023-05-16T17:11:30.565Z,2.97
2023-05-16T17:13:59.914Z,3.57
2023-05-16T17:16:29.489Z,2.90
2023-05-16T17:18:56.600Z,2.83
2023-05-16T17:21:23.568Z,3.80
2023-05-16T17:23:53.686Z,4.13
2023-05-16T17:26:20.897Z,3.60
2023-05-16T17:28:49.559Z,3.80
2023-05-16T17:31:16.980Z,3.60
2023-05-16T17:33:44.727Z,3.43
2023-05-16T17:36:11.710Z,3.10
2023-05-16T17:38:38.865Z,4.37
2023-05-16T17:41:05.908Z,3.60
2023-05-16T17:43:33.003Z,3.50
2023-05-16T17:46:00.078Z,4.33
2023-05-16T17:48:28.214Z,2.97
2023-05-16T17:50:55.173Z,4.83
2023-05-16T17:53:22.245Z,3.70
2023-05-16T17:55:49.871Z,3.60
2023-05-16T17:58:18.121Z,3.93
2023-05-16T18:00:46.912Z,3.80
2023-05-16T18:03:13.887Z,2.97
2023-05-16T18:05:41.003Z,4.17
2023-05-16T18:08:08.654Z,4.00
2023-05-16T18:10:50.463Z,3.83
2023-05-16T18:13:18.893Z,5.03
2023-05-16T18:15:45.988Z,3.90
2023-05-16T18:18:13.047Z,3.23
2023-05-16T18:20:41.100Z,3.10
2023-05-16T18:23:08.729Z,3.20
2023-05-16T18:25:35.674Z,2.63
2023-05-16T18:28:02.860Z,3.20
2023-05-16T18:30:29.898Z,3.23
2023-05-16T18:32:56.962Z,3.20
2023-05-16T18:35:23.950Z,3.67
2023-05-16T18:37:50.963Z,3.10
2023-05-16T18:40:18.378Z,5.03
2023-05-16T18:42:45.335Z,2.93
2023-05-16T18:45:12.286Z,3.50
2023-05-16T18:47:39.293Z,3.90
2023-05-16T18:50:07.015Z,2.70
2023-05-16T18:52:35.558Z,2.67
2023-05-16T18:55:02.612Z,3.60
2023-05-16T18:57:29.554Z,2.97
2023-05-16T18:59:56.863Z,2.93
2023-05-16T19:02:34.075Z,3.20
2023-05-16T19:05:09.133Z,2.93
2023-05-16T19:07:36.187Z,2.80
2023-05-16T19:10:04.287Z,2.33
2023-05-16T19:12:31.369Z,2.80
2023-05-16T19:14:58.309Z,3.03
2023-05-16T19:17:25.380Z,3.80
2023-05-16T19:19:52.517Z,2.90
2023-05-16T19:22:19.396Z,2.63
2023-05-16T19:24:46.353Z,3.30
2023-05-16T19:27:13.603Z,3.23
2023-05-16T19:29:40.491Z,2.90
2023-05-16T19:32:07.881Z,3.23
2023-05-16T19:34:36.318Z,4.10
2023-05-16T19:37:04.428Z,4.20
2023-05-16T19:39:32.304Z,3.07
2023-05-16T19:42:06.691Z,2.67
2023-05-16T19:44:34.632Z,2.57
2023-05-16T19:47:01.551Z,3.27
2023-05-16T19:49:31.537Z,2.73
2023-05-16T19:51:58.513Z,2.00
2023-05-16T19:54:26.010Z,2.33
2023-05-16T19:56:52.971Z,2.30
2023-05-16T19:59:20.802Z,3.50
2023-05-16T20:01:47.699Z,2.53
2023-05-16T20:04:14.808Z,2.53
2023-05-16T20:06:41.841Z,2.87
2023-05-16T20:09:08.851Z,2.70
2023-05-16T20:11:35.823Z,3.33
2023-05-16T20:14:02.888Z,2.80
2023-05-16T20:16:32.977Z,2.83
2023-05-16T20:19:00.097Z,2.80
2023-05-16T20:21:27.120Z,2.83
2023-05-16T20:23:54.059Z,2.50
2023-05-16T20:26:21.641Z,2.67
2023-05-16T20:28:48.543Z,2.63
2023-05-16T20:31:15.581Z,2.80
2023-05-16T20:33:42.653Z,2.63
2023-05-16T20:36:09.637Z,2.93
2023-05-16T20:38:36.816Z,3.30
2023-05-16T20:41:04.860Z,2.77
2023-05-16T20:43:31.729Z,2.70
2023-05-16T20:45:58.626Z,2.67
2023-05-16T20:48:25.904Z,2.50
2023-05-16T20:50:52.873Z,2.53
2023-05-16T20:53:19.853Z,3.00
2023-05-16T20:55:46.820Z,6.70
2023-05-16T20:58:15.758Z,3.87
2023-05-16T21:00:42.724Z,4.90
2023-05-16T21:03:12.685Z,3.73
2023-05-16T21:05:39.884Z,4.70
2023-05-16T21:08:07.109Z,5.03
2023-05-16T21:10:34.166Z,5.00
2023-05-16T21:13:01.103Z,4.20
2023-05-16T21:15:28.524Z,4.40
2023-05-16T21:17:56.224Z,4.73
2023-05-16T21:20:23.326Z,5.07
2023-05-16T21:22:50.240Z,4.33
2023-05-16T21:25:17.187Z,5.00
2023-05-16T21:27:44.132Z,5.20
2023-05-16T21:30:11.710Z,6.00
2023-05-16T21:32:38.703Z,7.23
2023-05-16T21:35:07.105Z,7.13
2023-05-16T21:37:34.151Z,6.03
2023-05-16T21:40:01.202Z,4.73
2023-05-16T21:42:28.290Z,4.13
2023-05-16T21:44:55.191Z,3.10
2023-05-16T21:47:22.283Z,3.80
2023-05-16T21:49:49.270Z,2.40
2023-05-16T21:52:16.221Z,2.60
2023-05-16T21:54:43.318Z,2.80
2023-05-16T21:57:10.254Z,2.60
2023-05-16T21:59:37.135Z,2.20
2023-05-16T22:02:04.197Z,2.60
2023-05-16T22:04:31.232Z,2.50
2023-05-16T22:06:58.222Z,2.90
2023-05-16T22:09:25.106Z,2.47
2023-05-16T22:11:52.007Z,3.10
2023-05-16T22:14:18.999Z,3.57
2023-05-16T22:16:46.030Z,4.00
2023-05-16T22:19:13.028Z,4.10
2023-05-16T22:21:40.059Z,5.93
2023-05-16T22:24:07.261Z,5.30
2023-05-16T22:26:34.210Z,5.90
2023-05-16T22:29:01.198Z,4.47
2023-05-16T22:31:28.094Z,4.80
2023-05-16T22:33:55.265Z,4.43
2023-05-16T22:36:22.265Z,4.20
2023-05-16T22:38:49.138Z,4.90
2023-05-16T22:41:16.640Z,5.37
2023-05-16T22:43:43.629Z,7.30
2023-05-16T22:46:10.546Z,5.97
2023-05-16T22:48:37.614Z,4.43
2023-05-16T22:51:04.632Z,4.27
2023-05-16T22:53:31.536Z,4.47
2023-05-16T22:55:58.504Z,3.90
2023-05-16T22:58:25.394Z,5.03
2023-05-16T23:00:52.357Z,3.57
2023-05-16T23:03:19.304Z,4.60
2023-05-16T23:05:46.332Z,5.13
2023-05-16T23:08:13.297Z,6.57
2023-05-16T23:10:40.186Z,7.20
2023-05-16T23:13:07.094Z,7.20
2023-05-16T23:15:33.948Z,7.23
2023-05-16T23:18:00.885Z,7.10
2023-05-16T23:20:27.783Z,6.70
2023-05-16T23:22:54.703Z,5.40
2023-05-16T23:25:21.631Z,4.90
2023-05-16T23:27:48.618Z,3.90
2023-05-16T23:30:15.896Z,3.10
2023-05-16T23:32:42.825Z,3.00
2023-05-16T23:35:09.854Z,1.90
2023-05-16T23:37:37.024Z,2.00
2023-05-16T23:40:04.215Z,2.20
2023-05-16T23:42:31.553Z,2.10
2023-05-16T23:44:58.461Z,2.27
2023-05-16T23:47:25.887Z,2.53
2023-05-16T23:49:52.790Z,2.20
2023-05-16T23:52:19.730Z,2.60
2023-05-16T23:54:46.699Z,2.80
2023-05-16T23:57:13.604Z,3.43
2023-05-16T23:59:41.292Z,4.40
